sensor_id;sensor_type;location;lat;lon;timestamp;pressure;altitude;pressure_sealevel;temperature
70831;BMP180;58451;51.550;7.208;2023-06-14T00:01:23;100744.20;;;16.34
70831;BMP180;58451;51.550;7.208;2023-06-14T00:02:55;100743.80;;;16.30
70831;BMP180;58451;51.550;7.208;2023-06-14T00:04:28;100746.20;;;16.30
70831;BMP180;58451;51.550;7.208;2023-06-14T00:06:00;100744.60;;;16.30
70831;BMP180;58451;51.550;7.208;2023-06-14T00:07:38;100745.40;;;16.30
70831;BMP180;58451;51.550;7.208;2023-06-14T00:09:14;100743.20;;;16.30
70831;BMP180;58451;51.550;7.208;2023-06-14T00:10:47;100745.40;;;16.30
70831;BMP180;58451;51.550;7.208;2023-06-14T00:12:19;100743.20;;;16.30
70831;BMP180;58451;51.550;7.208;2023-06-14T00:13:50;100745.40;;;16.20
70831;BMP180;58451;51.550;7.208;2023-06-14T00:15:22;100745.40;;;16.20
70831;BMP180;58451;51.550;7.208;2023-06-14T00:16:55;100745.60;;;16.20
70831;BMP180;58451;51.550;7.208;2023-06-14T00:18:30;100751.80;;;16.20
70831;BMP180;58451;51.550;7.208;2023-06-14T00:20:04;100757.60;;;16.20
70831;BMP180;58451;51.550;7.208;2023-06-14T00:21:39;100755.60;;;16.12
70831;BMP180;58451;51.550;7.208;2023-06-14T00:23:12;100756.20;;;16.10
70831;BMP180;58451;51.550;7.208;2023-06-14T00:24:44;100760.80;;;16.10
70831;BMP180;58451;51.550;7.208;2023-06-14T00:26:16;100760.00;;;16.10
70831;BMP180;58451;51.550;7.208;2023-06-14T00:27:48;100760.40;;;16.04
70831;BMP180;58451;51.550;7.208;2023-06-14T00:29:20;100755.40;;;16.00
70831;BMP180;58451;51.550;7.208;2023-06-14T00:30:52;100758.40;;;16.00
70831;BMP180;58451;51.550;7.208;2023-06-14T00:32:25;100760.80;;;16.00
70831;BMP180;58451;51.550;7.208;2023-06-14T00:34:00;100759.40;;;16.00
70831;BMP180;58451;51.550;7.208;2023-06-14T00:35:32;100755.60;;;15.92
70831;BMP180;58451;51.550;7.208;2023-06-14T00:37:04;100760.20;;;15.90
70831;BMP180;58451;51.550;7.208;2023-06-14T00:38:36;100764.20;;;15.90
70831;BMP180;58451;51.550;7.208;2023-06-14T00:40:08;100764.60;;;15.90
70831;BMP180;58451;51.550;7.208;2023-06-14T00:41:41;100759.80;;;15.84
70831;BMP180;58451;51.550;7.208;2023-06-14T00:43:13;100764.00;;;15.80
70831;BMP180;58451;51.550;7.208;2023-06-14T00:44:47;100765.00;;;15.80
70831;BMP180;58451;51.550;7.208;2023-06-14T00:46:19;100763.20;;;15.80
70831;BMP180;58451;51.550;7.208;2023-06-14T00:47:52;100763.80;;;15.80
70831;BMP180;58451;51.550;7.208;2023-06-14T00:49:29;100763.00;;;15.80
70831;BMP180;58451;51.550;7.208;2023-06-14T00:51:01;100764.60;;;15.76
70831;BMP180;58451;51.550;7.208;2023-06-14T00:52:36;100765.00;;;15.72
70831;BMP180;58451;51.550;7.208;2023-06-14T00:54:09;100768.80;;;15.74
70831;BMP180;58451;51.550;7.208;2023-06-14T00:55:41;100769.20;;;15.70
70831;BMP180;58451;51.550;7.208;2023-06-14T00:57:13;100762.80;;;15.70
70831;BMP180;58451;51.550;7.208;2023-06-14T00:58:46;100767.40;;;15.70
70831;BMP180;58451;51.550;7.208;2023-06-14T01:00:18;100770.60;;;15.70
70831;BMP180;58451;51.550;7.208;2023-06-14T01:01:50;100770.40;;;15.70
70831;BMP180;58451;51.550;7.208;2023-06-14T01:03:22;100768.60;;;15.70
70831;BMP180;58451;51.550;7.208;2023-06-14T01:04:55;100773.40;;;15.70
70831;BMP180;58451;51.550;7.208;2023-06-14T01:07:12;100773.60;;;15.70
70831;BMP180;58451;51.550;7.208;2023-06-14T01:11:01;100776.00;;;15.60
70831;BMP180;58451;51.550;7.208;2023-06-14T01:12:46;100778.00;;;15.60
70831;BMP180;58451;51.550;7.208;2023-06-14T01:14:21;100774.60;;;15.60
70831;BMP180;58451;51.550;7.208;2023-06-14T01:15:55;100775.20;;;15.60
70831;BMP180;58451;51.550;7.208;2023-06-14T01:17:29;100775.80;;;15.60
70831;BMP180;58451;51.550;7.208;2023-06-14T01:19:04;100777.60;;;15.60
70831;BMP180;58451;51.550;7.208;2023-06-14T01:20:36;100780.60;;;15.60
70831;BMP180;58451;51.550;7.208;2023-06-14T01:22:10;100776.80;;;15.60
70831;BMP180;58451;51.550;7.208;2023-06-14T01:23:43;100779.00;;;15.60
70831;BMP180;58451;51.550;7.208;2023-06-14T01:25:14;100778.60;;;15.60
70831;BMP180;58451;51.550;7.208;2023-06-14T01:26:50;100778.00;;;15.60
70831;BMP180;58451;51.550;7.208;2023-06-14T01:28:28;100783.00;;;15.60
70831;BMP180;58451;51.550;7.208;2023-06-14T01:30:04;100782.80;;;15.60
70831;BMP180;58451;51.550;7.208;2023-06-14T01:31:37;100781.20;;;15.60
70831;BMP180;58451;51.550;7.208;2023-06-14T01:33:16;100782.80;;;15.60
70831;BMP180;58451;51.550;7.208;2023-06-14T01:34:49;100777.40;;;15.60
70831;BMP180;58451;51.550;7.208;2023-06-14T01:36:22;100778.80;;;15.58
70831;BMP180;58451;51.550;7.208;2023-06-14T01:37:57;100772.80;;;15.60
70831;BMP180;58451;51.550;7.208;2023-06-14T01:39:30;100772.80;;;15.60
70831;BMP180;58451;51.550;7.208;2023-06-14T01:41:04;100773.60;;;15.60
70831;BMP180;58451;51.550;7.208;2023-06-14T01:42:38;100773.60;;;15.60
70831;BMP180;58451;51.550;7.208;2023-06-14T01:44:14;100775.60;;;15.60
70831;BMP180;58451;51.550;7.208;2023-06-14T01:45:48;100776.20;;;15.60
70831;BMP180;58451;51.550;7.208;2023-06-14T01:47:23;100776.00;;;15.58
70831;BMP180;58451;51.550;7.208;2023-06-14T01:48:56;100779.20;;;15.56
70831;BMP180;58451;51.550;7.208;2023-06-14T01:50:31;100777.80;;;15.50
70831;BMP180;58451;51.550;7.208;2023-06-14T01:52:03;100774.40;;;15.50
70831;BMP180;58451;51.550;7.208;2023-06-14T01:53:35;100772.60;;;15.50
70831;BMP180;58451;51.550;7.208;2023-06-14T01:55:08;100774.00;;;15.50
70831;BMP180;58451;51.550;7.208;2023-06-14T01:56:41;100776.20;;;15.50
70831;BMP180;58451;51.550;7.208;2023-06-14T01:58:13;100773.40;;;15.50
70831;BMP180;58451;51.550;7.208;2023-06-14T01:59:46;100770.40;;;15.40
70831;BMP180;58451;51.550;7.208;2023-06-14T02:01:20;100770.60;;;15.40
70831;BMP180;58451;51.550;7.208;2023-06-14T02:02:53;100767.20;;;15.40
70831;BMP180;58451;51.550;7.208;2023-06-14T02:04:25;100770.60;;;15.40
70831;BMP180;58451;51.550;7.208;2023-06-14T02:05:57;100770.40;;;15.40
70831;BMP180;58451;51.550;7.208;2023-06-14T02:07:29;100773.60;;;15.30
70831;BMP180;58451;51.550;7.208;2023-06-14T02:09:03;100773.20;;;15.30
70831;BMP180;58451;51.550;7.208;2023-06-14T02:10:35;100775.80;;;15.30
70831;BMP180;58451;51.550;7.208;2023-06-14T02:12:08;100772.20;;;15.30
70831;BMP180;58451;51.550;7.208;2023-06-14T02:13:41;100774.20;;;15.30
70831;BMP180;58451;51.550;7.208;2023-06-14T02:15:13;100775.00;;;15.30
70831;BMP180;58451;51.550;7.208;2023-06-14T02:16:48;100776.60;;;15.24
70831;BMP180;58451;51.550;7.208;2023-06-14T02:18:21;100776.40;;;15.20
70831;BMP180;58451;51.550;7.208;2023-06-14T02:19:53;100778.40;;;15.20
70831;BMP180;58451;51.550;7.208;2023-06-14T02:21:25;100780.80;;;15.20
70831;BMP180;58451;51.550;7.208;2023-06-14T02:22:57;100780.20;;;15.20
70831;BMP180;58451;51.550;7.208;2023-06-14T02:24:29;100772.80;;;15.20
70831;BMP180;58451;51.550;7.208;2023-06-14T02:26:02;100776.00;;;15.20
70831;BMP180;58451;51.550;7.208;2023-06-14T02:27:35;100777.40;;;15.20
70831;BMP180;58451;51.550;7.208;2023-06-14T02:29:07;100777.60;;;15.20
70831;BMP180;58451;51.550;7.208;2023-06-14T02:30:44;100777.40;;;15.20
70831;BMP180;58451;51.550;7.208;2023-06-14T02:32:16;100774.20;;;15.16
70831;BMP180;58451;51.550;7.208;2023-06-14T02:33:50;100775.60;;;15.10
70831;BMP180;58451;51.550;7.208;2023-06-14T02:35:22;100773.40;;;15.10
70831;BMP180;58451;51.550;7.208;2023-06-14T02:36:56;100775.00;;;15.10
70831;BMP180;58451;51.550;7.208;2023-06-14T02:38:30;100776.60;;;15.10
70831;BMP180;58451;51.550;7.208;2023-06-14T02:40:03;100776.80;;;15.10
70831;BMP180;58451;51.550;7.208;2023-06-14T02:41:36;100782.80;;;15.10
70831;BMP180;58451;51.550;7.208;2023-06-14T02:43:08;100778.20;;;15.10
70831;BMP180;58451;51.550;7.208;2023-06-14T02:44:40;100781.20;;;15.10
70831;BMP180;58451;51.550;7.208;2023-06-14T02:46:13;100775.80;;;15.10
70831;BMP180;58451;51.550;7.208;2023-06-14T02:47:46;100775.00;;;15.06
70831;BMP180;58451;51.550;7.208;2023-06-14T02:49:18;100775.80;;;15.00
70831;BMP180;58451;51.550;7.208;2023-06-14T02:50:50;100773.80;;;15.00
70831;BMP180;58451;51.550;7.208;2023-06-14T02:52:23;100779.60;;;15.00
70831;BMP180;58451;51.550;7.208;2023-06-14T02:53:56;100777.20;;;15.00
70831;BMP180;58451;51.550;7.208;2023-06-14T02:55:29;100777.60;;;15.00
70831;BMP180;58451;51.550;7.208;2023-06-14T02:57:01;100778.00;;;15.00
70831;BMP180;58451;51.550;7.208;2023-06-14T02:58:33;100783.20;;;15.00
70831;BMP180;58451;51.550;7.208;2023-06-14T03:00:06;100786.00;;;15.00
70831;BMP180;58451;51.550;7.208;2023-06-14T03:01:42;100791.80;;;14.98
70831;BMP180;58451;51.550;7.208;2023-06-14T03:03:16;100786.60;;;14.90
70831;BMP180;58451;51.550;7.208;2023-06-14T03:04:55;100788.40;;;14.90
70831;BMP180;58451;51.550;7.208;2023-06-14T03:06:31;100790.00;;;14.90
70831;BMP180;58451;51.550;7.208;2023-06-14T03:08:04;100794.80;;;14.90
70831;BMP180;58451;51.550;7.208;2023-06-14T03:09:38;100798.20;;;14.90
70831;BMP180;58451;51.550;7.208;2023-06-14T03:11:11;100800.00;;;14.90
70831;BMP180;58451;51.550;7.208;2023-06-14T03:12:43;100800.80;;;14.90
70831;BMP180;58451;51.550;7.208;2023-06-14T03:14:17;100804.00;;;14.90
70831;BMP180;58451;51.550;7.208;2023-06-14T03:15:51;100804.20;;;14.90
70831;BMP180;58451;51.550;7.208;2023-06-14T03:17:24;100805.20;;;14.90
70831;BMP180;58451;51.550;7.208;2023-06-14T03:19:05;100806.00;;;14.90
70831;BMP180;58451;51.550;7.208;2023-06-14T03:20:38;100803.60;;;14.90
70831;BMP180;58451;51.550;7.208;2023-06-14T03:22:10;100807.00;;;14.90
70831;BMP180;58451;51.550;7.208;2023-06-14T03:23:43;100808.20;;;14.90
70831;BMP180;58451;51.550;7.208;2023-06-14T03:25:17;100809.40;;;14.90
70831;BMP180;58451;51.550;7.208;2023-06-14T03:26:54;100809.20;;;14.90
70831;BMP180;58451;51.550;7.208;2023-06-14T03:28:28;100813.00;;;14.90
70831;BMP180;58451;51.550;7.208;2023-06-14T03:30:01;100818.80;;;14.90
70831;BMP180;58451;51.550;7.208;2023-06-14T03:31:34;100818.80;;;14.90
70831;BMP180;58451;51.550;7.208;2023-06-14T03:33:07;100819.60;;;14.90
70831;BMP180;58451;51.550;7.208;2023-06-14T03:34:45;100820.40;;;14.90
70831;BMP180;58451;51.550;7.208;2023-06-14T03:36:21;100820.80;;;14.90
70831;BMP180;58451;51.550;7.208;2023-06-14T03:37:55;100823.80;;;14.90
70831;BMP180;58451;51.550;7.208;2023-06-14T03:39:28;100826.40;;;14.90
70831;BMP180;58451;51.550;7.208;2023-06-14T03:41:00;100824.40;;;14.90
70831;BMP180;58451;51.550;7.208;2023-06-14T03:42:36;100826.80;;;14.90
70831;BMP180;58451;51.550;7.208;2023-06-14T03:44:08;100830.20;;;14.90
70831;BMP180;58451;51.550;7.208;2023-06-14T03:45:40;100830.20;;;14.90
70831;BMP180;58451;51.550;7.208;2023-06-14T03:47:12;100835.20;;;14.90
70831;BMP180;58451;51.550;7.208;2023-06-14T03:48:46;100840.00;;;14.90
70831;BMP180;58451;51.550;7.208;2023-06-14T03:50:18;100841.60;;;14.90
70831;BMP180;58451;51.550;7.208;2023-06-14T03:51:50;100839.20;;;14.90
70831;BMP180;58451;51.550;7.208;2023-06-14T03:53:25;100843.20;;;14.90
70831;BMP180;58451;51.550;7.208;2023-06-14T03:54:59;100848.20;;;14.92
70831;BMP180;58451;51.550;7.208;2023-06-14T03:56:37;100847.60;;;15.00
70831;BMP180;58451;51.550;7.208;2023-06-14T03:58:10;100849.80;;;15.00
70831;BMP180;58451;51.550;7.208;2023-06-14T03:59:43;100846.80;;;15.00
70831;BMP180;58451;51.550;7.208;2023-06-14T04:01:15;100840.00;;;15.00
70831;BMP180;58451;51.550;7.208;2023-06-14T04:02:47;100846.80;;;15.00
70831;BMP180;58451;51.550;7.208;2023-06-14T04:04:19;100842.80;;;15.00
70831;BMP180;58451;51.550;7.208;2023-06-14T04:05:53;100844.20;;;15.00
70831;BMP180;58451;51.550;7.208;2023-06-14T04:07:28;100845.80;;;15.00
70831;BMP180;58451;51.550;7.208;2023-06-14T04:09:00;100848.00;;;15.06
70831;BMP180;58451;51.550;7.208;2023-06-14T04:10:34;100852.60;;;15.10
70831;BMP180;58451;51.550;7.208;2023-06-14T04:12:07;100853.00;;;15.10
70831;BMP180;58451;51.550;7.208;2023-06-14T04:13:40;100856.40;;;15.10
70831;BMP180;58451;51.550;7.208;2023-06-14T04:15:12;100858.00;;;15.20
70831;BMP180;58451;51.550;7.208;2023-06-14T04:16:56;100865.40;;;15.20
70831;BMP180;58451;51.550;7.208;2023-06-14T04:18:28;100866.00;;;15.20
70831;BMP180;58451;51.550;7.208;2023-06-14T04:20:01;100870.40;;;15.20
70831;BMP180;58451;51.550;7.208;2023-06-14T04:21:37;100870.80;;;15.28
70831;BMP180;58451;51.550;7.208;2023-06-14T04:23:16;100874.80;;;15.30
70831;BMP180;58451;51.550;7.208;2023-06-14T04:24:53;100879.00;;;15.30
70831;BMP180;58451;51.550;7.208;2023-06-14T04:26:41;100882.20;;;15.32
70831;BMP180;58451;51.550;7.208;2023-06-14T04:28:19;100874.00;;;15.40
70831;BMP180;58451;51.550;7.208;2023-06-14T04:29:53;100873.40;;;15.40
70831;BMP180;58451;51.550;7.208;2023-06-14T04:31:30;100881.20;;;15.46
70831;BMP180;58451;51.550;7.208;2023-06-14T04:33:07;100874.80;;;15.50
70831;BMP180;58451;51.550;7.208;2023-06-14T04:34:43;100883.20;;;15.50
70831;BMP180;58451;51.550;7.208;2023-06-14T04:36:16;100878.60;;;15.60
70831;BMP180;58451;51.550;7.208;2023-06-14T04:37:52;100881.80;;;15.60
70831;BMP180;58451;51.550;7.208;2023-06-14T04:39:27;100886.00;;;15.70
70831;BMP180;58451;51.550;7.208;2023-06-14T04:41:00;100886.20;;;15.70
70831;BMP180;58451;51.550;7.208;2023-06-14T04:42:34;100887.80;;;15.80
70831;BMP180;58451;51.550;7.208;2023-06-14T04:44:13;100888.80;;;15.80
70831;BMP180;58451;51.550;7.208;2023-06-14T04:45:48;100891.40;;;15.80
70831;BMP180;58451;51.550;7.208;2023-06-14T04:47:21;100891.80;;;15.90
70831;BMP180;58451;51.550;7.208;2023-06-14T04:48:54;100897.80;;;15.90
70831;BMP180;58451;51.550;7.208;2023-06-14T04:50:26;100895.20;;;15.92
70831;BMP180;58451;51.550;7.208;2023-06-14T04:52:00;100897.80;;;16.00
70831;BMP180;58451;51.550;7.208;2023-06-14T04:53:44;100896.80;;;16.00
70831;BMP180;58451;51.550;7.208;2023-06-14T04:55:17;100900.00;;;16.10
70831;BMP180;58451;51.550;7.208;2023-06-14T04:56:52;100898.00;;;16.10
70831;BMP180;58451;51.550;7.208;2023-06-14T04:58:28;100902.20;;;16.20
70831;BMP180;58451;51.550;7.208;2023-06-14T05:00:01;100901.60;;;16.20
70831;BMP180;58451;51.550;7.208;2023-06-14T05:01:36;100902.00;;;16.30
70831;BMP180;58451;51.550;7.208;2023-06-14T05:03:09;100901.80;;;16.30
70831;BMP180;58451;51.550;7.208;2023-06-14T05:04:45;100906.60;;;16.32
70831;BMP180;58451;51.550;7.208;2023-06-14T05:06:19;100911.60;;;16.40
70831;BMP180;58451;51.550;7.208;2023-06-14T05:07:51;100909.60;;;16.40
70831;BMP180;58451;51.550;7.208;2023-06-14T05:09:24;100910.20;;;16.46
70831;BMP180;58451;51.550;7.208;2023-06-14T05:10:56;100911.20;;;16.50
70831;BMP180;58451;51.550;7.208;2023-06-14T05:12:28;100909.00;;;16.50
70831;BMP180;58451;51.550;7.208;2023-06-14T05:14:02;100909.00;;;16.60
70831;BMP180;58451;51.550;7.208;2023-06-14T05:15:34;100912.20;;;16.60
70831;BMP180;58451;51.550;7.208;2023-06-14T05:17:06;100913.20;;;16.60
70831;BMP180;58451;51.550;7.208;2023-06-14T05:18:39;100916.60;;;16.68
70831;BMP180;58451;51.550;7.208;2023-06-14T05:20:12;100913.40;;;16.70
70831;BMP180;58451;51.550;7.208;2023-06-14T05:21:44;100916.20;;;16.80
70831;BMP180;58451;51.550;7.208;2023-06-14T05:23:17;100915.80;;;16.80
70831;BMP180;58451;51.550;7.208;2023-06-14T05:24:50;100915.80;;;16.90
70831;BMP180;58451;51.550;7.208;2023-06-14T05:26:23;100914.00;;;16.90
70831;BMP180;58451;51.550;7.208;2023-06-14T05:27:57;100912.80;;;17.00
70831;BMP180;58451;51.550;7.208;2023-06-14T05:29:28;100911.40;;;17.00
70831;BMP180;58451;51.550;7.208;2023-06-14T05:31:02;100917.20;;;17.10
70831;BMP180;58451;51.550;7.208;2023-06-14T05:32:34;100913.20;;;17.10
70831;BMP180;58451;51.550;7.208;2023-06-14T05:34:06;100914.00;;;17.20
70831;BMP180;58451;51.550;7.208;2023-06-14T05:35:40;100916.60;;;17.20
70831;BMP180;58451;51.550;7.208;2023-06-14T05:37:13;100916.60;;;17.20
70831;BMP180;58451;51.550;7.208;2023-06-14T05:38:45;100919.40;;;17.26
70831;BMP180;58451;51.550;7.208;2023-06-14T05:40:18;100920.20;;;17.30
70831;BMP180;58451;51.550;7.208;2023-06-14T05:41:50;100920.20;;;17.40
70831;BMP180;58451;51.550;7.208;2023-06-14T05:43:22;100920.20;;;17.40
70831;BMP180;58451;51.550;7.208;2023-06-14T05:44:54;100921.60;;;17.50
70831;BMP180;58451;51.550;7.208;2023-06-14T05:46:27;100924.80;;;17.50
70831;BMP180;58451;51.550;7.208;2023-06-14T05:48:00;100925.40;;;17.60
70831;BMP180;58451;51.550;7.208;2023-06-14T05:49:32;100929.40;;;17.62
70831;BMP180;58451;51.550;7.208;2023-06-14T05:51:03;100930.20;;;17.70
70831;BMP180;58451;51.550;7.208;2023-06-14T05:52:35;100929.60;;;17.70
70831;BMP180;58451;51.550;7.208;2023-06-14T05:54:08;100930.00;;;17.78
70831;BMP180;58451;51.550;7.208;2023-06-14T05:55:40;100931.40;;;17.80
70831;BMP180;58451;51.550;7.208;2023-06-14T05:57:12;100933.00;;;17.80
70831;BMP180;58451;51.550;7.208;2023-06-14T05:58:47;100935.00;;;17.80
70831;BMP180;58451;51.550;7.208;2023-06-14T06:00:20;100942.20;;;17.80
70831;BMP180;58451;51.550;7.208;2023-06-14T06:01:52;100939.20;;;17.90
70831;BMP180;58451;51.550;7.208;2023-06-14T06:03:23;100937.00;;;17.96
70831;BMP180;58451;51.550;7.208;2023-06-14T06:04:55;100935.20;;;18.00
70831;BMP180;58451;51.550;7.208;2023-06-14T06:06:27;100937.60;;;18.08
70831;BMP180;58451;51.550;7.208;2023-06-14T06:08:00;100941.60;;;18.10
70831;BMP180;58451;51.550;7.208;2023-06-14T06:09:33;100943.80;;;18.10
70831;BMP180;58451;51.550;7.208;2023-06-14T06:11:04;100945.80;;;18.20
70831;BMP180;58451;51.550;7.208;2023-06-14T06:12:36;100942.80;;;18.20
70831;BMP180;58451;51.550;7.208;2023-06-14T06:14:08;100947.60;;;18.30
70831;BMP180;58451;51.550;7.208;2023-06-14T06:15:40;100944.40;;;18.30
70831;BMP180;58451;51.550;7.208;2023-06-14T06:17:12;100947.40;;;18.40
70831;BMP180;58451;51.550;7.208;2023-06-14T06:18:44;100951.20;;;18.40
70831;BMP180;58451;51.550;7.208;2023-06-14T06:20:16;100953.80;;;18.50
70831;BMP180;58451;51.550;7.208;2023-06-14T06:21:49;100953.80;;;18.60
70831;BMP180;58451;51.550;7.208;2023-06-14T06:23:20;100949.80;;;18.62
70831;BMP180;58451;51.550;7.208;2023-06-14T06:24:52;100949.60;;;18.70
70831;BMP180;58451;51.550;7.208;2023-06-14T06:26:24;100949.00;;;18.70
70831;BMP180;58451;51.550;7.208;2023-06-14T06:27:58;100948.60;;;18.70
70831;BMP180;58451;51.550;7.208;2023-06-14T06:29:30;100950.80;;;18.78
70831;BMP180;58451;51.550;7.208;2023-06-14T06:31:02;100950.40;;;18.80
70831;BMP180;58451;51.550;7.208;2023-06-14T06:32:35;100947.40;;;18.86
70831;BMP180;58451;51.550;7.208;2023-06-14T06:34:07;100953.40;;;18.90
70831;BMP180;58451;51.550;7.208;2023-06-14T06:35:39;100954.80;;;19.00
70831;BMP180;58451;51.550;7.208;2023-06-14T06:37:13;100954.80;;;19.00
70831;BMP180;58451;51.550;7.208;2023-06-14T06:38:45;100960.40;;;19.06
70831;BMP180;58451;51.550;7.208;2023-06-14T06:40:17;100958.40;;;19.10
70831;BMP180;58451;51.550;7.208;2023-06-14T06:41:49;100962.60;;;19.10
70831;BMP180;58451;51.550;7.208;2023-06-14T06:43:23;100967.20;;;19.18
70831;BMP180;58451;51.550;7.208;2023-06-14T06:44:55;100967.20;;;19.20
70831;BMP180;58451;51.550;7.208;2023-06-14T06:46:26;100969.20;;;19.24
70831;BMP180;58451;51.550;7.208;2023-06-14T06:47:58;100974.20;;;19.30
70831;BMP180;58451;51.550;7.208;2023-06-14T06:49:30;100974.80;;;19.40
70831;BMP180;58451;51.550;7.208;2023-06-14T06:51:02;100982.40;;;19.36
70831;BMP180;58451;51.550;7.208;2023-06-14T06:52:34;100981.80;;;19.40
70831;BMP180;58451;51.550;7.208;2023-06-14T06:54:06;100983.60;;;19.50
70831;BMP180;58451;51.550;7.208;2023-06-14T06:55:39;100979.80;;;19.58
70831;BMP180;58451;51.550;7.208;2023-06-14T06:57:11;100979.00;;;19.60
70831;BMP180;58451;51.550;7.208;2023-06-14T06:58:43;100982.80;;;19.66
70831;BMP180;58451;51.550;7.208;2023-06-14T07:00:15;100982.60;;;19.70
70831;BMP180;58451;51.550;7.208;2023-06-14T07:01:50;100980.40;;;19.62
70831;BMP180;58451;51.550;7.208;2023-06-14T07:03:25;100982.80;;;19.60
70831;BMP180;58451;51.550;7.208;2023-06-14T07:04:57;100984.00;;;19.70
70831;BMP180;58451;51.550;7.208;2023-06-14T07:06:28;100985.60;;;19.70
70831;BMP180;58451;51.550;7.208;2023-06-14T07:08:01;100989.00;;;19.70
70831;BMP180;58451;51.550;7.208;2023-06-14T07:09:34;100990.20;;;19.80
70831;BMP180;58451;51.550;7.208;2023-06-14T07:11:06;100990.40;;;19.80
70831;BMP180;58451;51.550;7.208;2023-06-14T07:12:37;100994.40;;;19.80
70831;BMP180;58451;51.550;7.208;2023-06-14T07:14:11;100992.80;;;19.84
70831;BMP180;58451;51.550;7.208;2023-06-14T07:15:43;100995.60;;;19.90
70831;BMP180;58451;51.550;7.208;2023-06-14T07:17:15;100997.20;;;19.92
70831;BMP180;58451;51.550;7.208;2023-06-14T07:18:47;100994.20;;;20.00
70831;BMP180;58451;51.550;7.208;2023-06-14T07:20:19;100991.80;;;20.00
70831;BMP180;58451;51.550;7.208;2023-06-14T07:21:52;100990.60;;;20.10
70831;BMP180;58451;51.550;7.208;2023-06-14T07:23:25;100989.80;;;20.20
70831;BMP180;58451;51.550;7.208;2023-06-14T07:24:57;100992.60;;;20.28
70831;BMP180;58451;51.550;7.208;2023-06-14T07:26:29;100991.00;;;20.30
70831;BMP180;58451;51.550;7.208;2023-06-14T07:28:00;100993.20;;;20.20
70831;BMP180;58451;51.550;7.208;2023-06-14T07:29:33;100990.40;;;20.20
70831;BMP180;58451;51.550;7.208;2023-06-14T07:31:04;100994.60;;;20.20
70831;BMP180;58451;51.550;7.208;2023-06-14T07:32:36;100998.20;;;20.20
70831;BMP180;58451;51.550;7.208;2023-06-14T07:34:08;100999.80;;;20.20
70831;BMP180;58451;51.550;7.208;2023-06-14T07:35:40;100998.20;;;20.20
70831;BMP180;58451;51.550;7.208;2023-06-14T07:37:13;101001.20;;;20.30
70831;BMP180;58451;51.550;7.208;2023-06-14T07:38:46;100993.80;;;20.30
70831;BMP180;58451;51.550;7.208;2023-06-14T07:40:18;100993.40;;;20.40
70831;BMP180;58451;51.550;7.208;2023-06-14T07:41:49;100990.60;;;20.40
70831;BMP180;58451;51.550;7.208;2023-06-14T07:43:21;100995.80;;;20.50
70831;BMP180;58451;51.550;7.208;2023-06-14T07:44:53;100995.40;;;20.50
70831;BMP180;58451;51.550;7.208;2023-06-14T07:46:25;100992.60;;;20.50
70831;BMP180;58451;51.550;7.208;2023-06-14T07:47:57;100992.80;;;20.60
70831;BMP180;58451;51.550;7.208;2023-06-14T07:49:29;100991.40;;;20.60
70831;BMP180;58451;51.550;7.208;2023-06-14T07:51:01;100992.40;;;20.60
70831;BMP180;58451;51.550;7.208;2023-06-14T07:52:33;100992.80;;;20.70
70831;BMP180;58451;51.550;7.208;2023-06-14T07:54:05;100995.40;;;20.72
70831;BMP180;58451;51.550;7.208;2023-06-14T07:55:38;100994.60;;;20.80
70831;BMP180;58451;51.550;7.208;2023-06-14T07:57:24;101000.60;;;20.80
70831;BMP180;58451;51.550;7.208;2023-06-14T07:58:56;101002.20;;;20.80
70831;BMP180;58451;51.550;7.208;2023-06-14T08:00:27;100998.00;;;20.66
70831;BMP180;58451;51.550;7.208;2023-06-14T08:01:59;100997.60;;;20.70
70831;BMP180;58451;51.550;7.208;2023-06-14T08:03:32;101004.20;;;20.70
70831;BMP180;58451;51.550;7.208;2023-06-14T08:05:04;100999.60;;;20.80
70831;BMP180;58451;51.550;7.208;2023-06-14T08:06:36;100998.40;;;20.84
70831;BMP180;58451;51.550;7.208;2023-06-14T08:08:11;100999.40;;;20.90
70831;BMP180;58451;51.550;7.208;2023-06-14T08:09:44;100998.20;;;21.00
70831;BMP180;58451;51.550;7.208;2023-06-14T08:11:15;101000.80;;;20.90
70831;BMP180;58451;51.550;7.208;2023-06-14T08:12:48;100998.60;;;20.96
70831;BMP180;58451;51.550;7.208;2023-06-14T08:14:22;100999.20;;;21.00
70831;BMP180;58451;51.550;7.208;2023-06-14T08:15:54;100997.80;;;21.10
70831;BMP180;58451;51.550;7.208;2023-06-14T08:17:28;101002.60;;;21.10
70831;BMP180;58451;51.550;7.208;2023-06-14T08:19:01;101005.20;;;21.20
70831;BMP180;58451;51.550;7.208;2023-06-14T08:20:32;101004.80;;;21.20
70831;BMP180;58451;51.550;7.208;2023-06-14T08:22:06;101003.60;;;21.22
70831;BMP180;58451;51.550;7.208;2023-06-14T08:23:38;101006.40;;;21.10
70831;BMP180;58451;51.550;7.208;2023-06-14T08:25:10;101007.40;;;21.00
70831;BMP180;58451;51.550;7.208;2023-06-14T08:26:44;101000.20;;;21.02
70831;BMP180;58451;51.550;7.208;2023-06-14T08:28:16;100999.40;;;21.10
70831;BMP180;58451;51.550;7.208;2023-06-14T08:29:47;100999.60;;;21.20
70831;BMP180;58451;51.550;7.208;2023-06-14T08:31:19;101001.40;;;21.28
70831;BMP180;58451;51.550;7.208;2023-06-14T08:32:51;101002.20;;;21.30
70831;BMP180;58451;51.550;7.208;2023-06-14T08:34:41;101001.80;;;21.30
70831;BMP180;58451;51.550;7.208;2023-06-14T08:36:23;101003.60;;;21.40
70831;BMP180;58451;51.550;7.208;2023-06-14T08:37:55;101003.80;;;21.30
70831;BMP180;58451;51.550;7.208;2023-06-14T08:39:27;101003.80;;;21.30
70831;BMP180;58451;51.550;7.208;2023-06-14T08:41:00;100996.60;;;21.40
70831;BMP180;58451;51.550;7.208;2023-06-14T08:42:33;100993.40;;;21.34
70831;BMP180;58451;51.550;7.208;2023-06-14T08:44:06;101001.40;;;21.40
70831;BMP180;58451;51.550;7.208;2023-06-14T08:45:39;101000.60;;;21.40
70831;BMP180;58451;51.550;7.208;2023-06-14T08:47:12;101004.20;;;21.40
70831;BMP180;58451;51.550;7.208;2023-06-14T08:48:47;101004.20;;;21.40
70831;BMP180;58451;51.550;7.208;2023-06-14T08:50:21;101003.00;;;21.50
70831;BMP180;58451;51.550;7.208;2023-06-14T08:52:05;101000.80;;;21.50
70831;BMP180;58451;51.550;7.208;2023-06-14T08:53:40;101004.00;;;21.40